Pratts Hollow, New York
Current Conditions -  °F | °C
As of 9:53 AM on Saturday 25 Oct 2014 (Local Time) from KRME Reporting Station
Overcast Overcast  
Wind Chill: 47°   Ceiling: 3900
Heat Index: 47°   Visibility: 8mi
Dew Point: 43°   Wind: 0mph
Humidity: 86%   Direction: NA
Pressure: 29.83"   Gusts: NA
Location:  42.9826°N, 75.5909°W
Report Text: KRME 251353Z 00000KT 8SM SCT027 OVC039 08/06 A2983 RMK AO2 SLP101 T00830061
Loading
Personal Weather Stations






























Interactive Weather Map
Tropical Storm Tracking
New forecast layout! Learn more

10-Day Weather Forecast

Advertisements
Track Severe Weather on mobile